Time;durP1;ratioP1;P1;durP2;ratioP2;P2;SDS_P1;SDS_P2;PMS_P1;PMS_P2;Temp;Humidity;BMP_temperature;BMP_pressure;BME280_temperature;BME280_humidity;BME280_pressure;Samples;Min_cycle;Max_cycle;Signal;HPM_P1;HPM_P2
2022/03/26 00:00:48;;;;;;;22.32;11.65;;;;;;;6.43;68.38;100049.28;1711609;82;21622;-59
2022/03/26 00:03:18;;;;;;;16.67;10.88;;;;;;;6.40;68.55;100046.77;1713481;82;21080;-59
2022/03/26 00:05:45;;;;;;;20.33;12.40;;;;;;;6.40;69.19;100055.00;1714084;82;21059;-59
2022/03/26 00:08:13;;;;;;;26.07;14.37;;;;;;;6.42;68.85;100039.81;1726465;80;21234;-59
2022/03/26 00:10:39;;;;;;;;;;;;;;;6.42;69.13;100045.00;1708931;81;20981;-59
2022/03/26 00:13:07;;;;;;;23.77;14.58;;;;;;;6.41;69.07;100056.27;1730540;81;21172;-59
2022/03/26 00:15:34;;;;;;;21.65;13.62;;;;;;;6.37;68.90;100049.44;1729630;81;26825;-59
2022/03/26 00:18:00;;;;;;;27.62;14.70;;;;;;;6.32;69.11;100055.18;1739982;81;20959;-59
2022/03/26 00:20:27;;;;;;;20.20;12.73;;;;;;;6.30;69.48;100050.47;1737390;82;20894;-59
2022/03/26 00:22:54;;;;;;;23.67;13.60;;;;;;;6.29;69.34;100046.18;1732362;81;21593;-59
2022/03/26 00:25:20;;;;;;;19.13;13.60;;;;;;;6.28;69.39;100034.11;1730035;81;21510;-59
2022/03/26 00:27:48;;;;;;;24.80;14.68;;;;;;;6.25;69.41;100034.20;1738757;81;20949;-59
2022/03/26 00:30:15;;;;;;;;;;;;;;;6.25;69.53;100036.78;1728687;81;20937;-59
2022/03/26 00:32:41;;;;;;;24.47;16.35;;;;;;;6.21;69.45;100020.43;1705932;82;20201;-59
2022/03/26 00:35:09;;;;;;;20.83;15.53;;;;;;;6.18;69.53;100015.33;1736708;81;21502;-59
2022/03/26 00:37:38;;;;;;;36.80;18.50;;;;;;;6.16;69.79;100013.66;1727421;80;21686;-59
2022/03/26 00:40:06;;;;;;;25.88;16.67;;;;;;;6.17;69.90;100007.59;1716148;81;20918;-59
2022/03/26 00:42:34;;;;;;;22.35;15.78;;;;;;;6.16;69.97;100008.47;1740626;80;20981;-59
2022/03/26 00:45:01;;;;;;;23.55;16.15;;;;;;;6.14;69.97;99999.45;1735442;81;21456;-59
2022/03/26 00:47:28;;;;;;;26.40;15.80;;;;;;;6.12;70.33;100006.86;1752996;79;20925;-59
2022/03/26 00:49:54;;;;;;;28.47;17.30;;;;;;;6.12;70.22;100000.37;1739844;80;21473;-59
2022/03/26 00:52:22;;;;;;;27.52;16.65;;;;;;;6.12;70.64;99997.78;1734717;81;21012;-59
2022/03/26 00:54:49;;;;;;;24.98;15.78;;;;;;;6.11;70.55;100001.27;1735132;80;21715;-59
2022/03/26 00:57:16;;;;;;;25.17;15.38;;;;;;;6.10;70.82;99998.25;1739247;81;21045;-59
2022/03/26 00:59:44;;;;;;;21.07;13.78;;;;;;;6.09;70.84;99991.38;1733487;81;21532;-60
2022/03/26 01:02:10;;;;;;;;;;;;;;;6.06;71.49;99987.12;1729694;81;21146;-59
2022/03/26 01:04:38;;;;;;;25.30;15.80;;;;;;;6.08;71.21;99984.47;1727671;82;20184;-59
2022/03/26 01:07:06;;;;;;;27.22;16.45;;;;;;;6.09;71.26;99997.86;1726552;81;21079;-59
2022/03/26 01:09:32;;;;;;;28.17;16.90;;;;;;;6.08;71.20;99989.66;1719695;82;21541;-59
2022/03/26 01:11:59;;;;;;;25.53;16.00;;;;;;;6.05;71.10;100004.42;1723197;81;21095;-59
2022/03/26 01:14:27;;;;;;;25.77;15.43;;;;;;;6.04;71.43;100005.28;1728467;81;21226;-60
2022/03/26 01:16:53;;;;;;;;;;;;;;;6.04;71.64;99997.51;1736322;81;20953;-59
2022/03/26 01:19:20;;;;;;;26.52;15.80;;;;;;;6.05;71.71;99994.05;1757175;80;20135;-59
2022/03/26 01:21:46;;;;;;;28.20;16.97;;;;;;;6.07;72.01;100000.48;1714064;82;20958;-59
2022/03/26 01:24:13;;;;;;;29.70;16.65;;;;;;;6.07;72.63;100000.92;1759997;80;21008;-59
2022/03/26 01:26:39;;;;;;;23.07;15.30;;;;;;;6.08;72.40;100000.02;1710433;82;21637;-59
2022/03/26 01:29:07;;;;;;;23.20;13.83;;;;;;;6.07;72.25;100001.77;1754806;80;20972;-59
2022/03/26 01:31:34;;;;;;;24.87;15.30;;;;;;;6.07;72.89;100006.11;1726524;82;21005;-59
2022/03/26 01:34:01;;;;;;;23.52;15.08;;;;;;;6.05;72.24;99996.64;1758653;80;20960;-59
2022/03/26 01:36:28;;;;;;;21.90;14.63;;;;;;;6.03;72.41;100003.59;1702546;81;21076;-59
2022/03/26 01:38:55;;;;;;;22.32;14.83;;;;;;;6.00;72.65;100001.08;1755552;80;21834;-58
2022/03/26 01:41:21;;;;;;;22.35;15.30;;;;;;;5.99;72.42;100005.87;1720003;81;20977;-59
2022/03/26 01:43:49;;;;;;;25.50;15.55;;;;;;;5.98;73.05;99995.08;1759350;80;20996;-59
2022/03/26 01:46:16;;;;;;;29.18;13.88;;;;;;;5.97;72.69;99990.78;1715901;81;21004;-60
2022/03/26 01:48:42;;;;;;;25.57;14.83;;;;;;;5.97;72.85;99983.02;1741770;80;20985;-59
2022/03/26 01:51:16;;;;;;;23.70;14.58;;;;;;;5.98;72.87;99995.52;1725175;81;21609;-60
2022/03/26 01:53:52;;;;;;;21.33;13.72;;;;;;;5.97;73.13;99999.86;1760738;80;20965;-59
2022/03/26 01:56:21;;;;;;;24.87;14.20;;;;;;;5.96;73.08;99991.66;1751225;80;21982;-59
2022/03/26 01:58:48;;;;;;;21.35;14.50;;;;;;;5.96;73.77;99998.59;1777679;80;20928;-59
2022/03/26 02:01:15;;;;;;;21.52;13.93;;;;;;;5.96;73.74;99994.25;1756192;81;20971;-59
2022/03/26 02:03:42;;;;;;;22.70;13.50;;;;;;;5.98;74.18;99989.89;1748588;80;21017;-59
2022/03/26 02:06:08;;;;;;;21.30;13.15;;;;;;;5.99;74.37;99977.36;1749409;80;20979;-59
2022/03/26 02:08:35;;;;;;;23.25;13.20;;;;;;;5.98;73.98;99966.56;1766247;79;21095;-59
2022/03/26 02:11:03;;;;;;;23.73;13.05;;;;;;;5.95;73.91;99954.98;1763044;81;20980;-59
2022/03/26 02:13:55;;;;;;;22.13;12.50;;;;;;;5.97;74.00;99944.59;1765929;80;20955;-59
2022/03/26 02:16:23;;;;;;;23.32;12.73;;;;;;;5.96;74.06;99941.11;1742879;79;21087;-59
2022/03/26 02:18:51;;;;;;;24.20;12.68;;;;;;;5.95;74.01;99942.02;1729104;81;21486;-59
2022/03/26 02:21:20;;;;;;;18.57;11.83;;;;;;;5.92;74.23;99943.36;1734822;81;28215;-59
2022/03/26 02:23:48;;;;;;;18.40;12.13;;;;;;;5.93;74.89;99959.75;1754032;81;21016;-59
2022/03/26 02:26:21;;;;;;;18.37;11.93;;;;;;;5.92;74.52;99977.05;1745793;80;21031;-59
2022/03/26 02:28:49;;;;;;;18.73;11.33;;;;;;;5.92;75.06;99977.05;1752571;80;21204;-59
2022/03/26 02:31:16;;;;;;;20.70;11.55;;;;;;;5.93;75.25;99985.25;1752107;80;21058;-59
2022/03/26 02:33:43;;;;;;;19.67;10.98;;;;;;;5.96;75.41;99969.63;1754797;80;24519;-59
2022/03/26 02:36:10;;;;;;;20.63;11.77;;;;;;;5.99;75.44;99963.09;1750931;80;20945;-59
2022/03/26 02:38:40;;;;;;;16.27;11.03;;;;;;;6.01;75.48;99963.89;1755163;80;20987;-59
2022/03/26 02:41:08;;;;;;;15.70;10.53;;;;;;;6.01;75.25;99947.04;1754558;80;21090;-59
2022/03/26 02:43:35;;;;;;;13.50;9.55;;;;;;;6.01;75.12;99939.72;1758913;80;21046;-59
2022/03/26 02:46:03;;;;;;;17.05;10.53;;;;;;;5.98;75.40;99920.36;1745427;80;21039;-59
2022/03/26 02:48:31;;;;;;;17.70;10.65;;;;;;;5.97;75.37;99907.84;1747663;81;20965;-59
2022/03/26 02:50:58;;;;;;;17.48;10.45;;;;;;;5.99;75.10;99906.08;1756860;80;21168;-60
2022/03/26 02:53:24;;;;;;;17.60;10.55;;;;;;;5.99;75.28;99916.45;1774532;80;21445;-60
2022/03/26 02:55:52;;;;;;;22.93;10.57;;;;;;;6.00;75.59;99905.17;1763042;79;20949;-61
2022/03/26 02:58:19;;;;;;;14.00;10.65;;;;;;;6.03;75.79;99922.39;1739966;80;21055;-61
2022/03/26 03:00:46;;;;;;;16.75;10.18;;;;;;;6.04;75.82;99923.63;1743289;81;20952;-61
2022/03/26 03:03:13;;;;;;;20.47;9.57;;;;;;;6.01;76.01;99919.83;1756345;80;21004;-60
2022/03/26 03:05:39;;;;;;;17.98;11.15;;;;;;;6.02;76.04;99918.95;1762408;80;22219;-60
2022/03/26 03:08:06;;;;;;;19.77;9.75;;;;;;;5.99;75.89;99913.85;1740999;80;21063;-60
2022/03/26 03:10:32;;;;;;;22.35;10.38;;;;;;;5.98;76.32;99915.17;1760243;80;21522;-60
2022/03/26 03:12:59;;;;;;;14.33;9.63;;;;;;;5.96;76.18;99928.16;1758020;80;21059;-61
2022/03/26 03:15:26;;;;;;;16.82;10.05;;;;;;;5.98;76.65;99918.61;1746294;80;21526;-60
2022/03/26 03:17:53;;;;;;;15.88;9.68;;;;;;;6.00;76.90;99925.06;1760661;80;21456;-60
2022/03/26 03:20:19;;;;;;;16.27;9.50;;;;;;;6.00;76.83;99910.36;1747328;80;21525;-60
2022/03/26 03:22:46;;;;;;;13.50;10.40;;;;;;;6.00;77.21;99924.61;1757130;80;20973;-60
2022/03/26 03:25:13;;;;;;;15.20;9.90;;;;;;;6.02;77.21;99924.14;1747184;79;21398;-60
2022/03/26 03:27:40;;;;;;;17.82;11.25;;;;;;;6.05;77.80;99909.80;1762066;80;20932;-61
2022/03/26 03:30:09;;;;;;;16.00;10.35;;;;;;;6.09;77.41;99918.80;1733021;81;21065;-60
2022/03/26 03:32:40;;;;;;;18.92;10.48;;;;;;;6.11;77.51;99906.65;1757906;80;20951;-61
2022/03/26 03:35:09;;;;;;;16.48;10.70;;;;;;;6.14;78.30;99919.08;1740982;80;21087;-60
2022/03/26 03:37:38;;;;;;;17.27;9.25;;;;;;;6.17;77.96;99914.27;1757767;81;20973;-60
2022/03/26 03:40:07;;;;;;;21.27;10.72;;;;;;;6.20;78.12;99909.84;1760533;79;21036;-60
2022/03/26 03:42:34;;;;;;;14.70;10.18;;;;;;;6.21;77.61;99908.09;1725754;81;21124;-60
2022/03/26 03:45:01;;;;;;;16.70;10.68;;;;;;;6.24;78.13;99889.86;1738708;80;21094;-60
2022/03/26 03:47:28;;;;;;;20.43;11.00;;;;;;;6.27;78.07;99897.55;1751626;80;21583;-60
2022/03/26 03:49:55;;;;;;;18.13;9.73;;;;;;;6.28;77.64;99895.37;1759934;80;21022;-60
2022/03/26 03:52:21;;;;;;;13.78;9.43;;;;;;;6.33;78.53;99907.78;1757082;80;21526;-60
2022/03/26 03:54:48;;;;;;;21.20;10.20;;;;;;;6.33;78.18;99905.19;1756142;80;20995;-60
2022/03/26 03:57:15;;;;;;;20.05;10.15;;;;;;;6.36;78.84;99906.41;1761736;80;20985;-60
2022/03/26 03:59:42;;;;;;;15.98;9.78;;;;;;;6.36;78.38;99912.01;1763654;80;21035;-60
2022/03/26 04:02:12;;;;;;;14.45;10.10;;;;;;;6.35;78.71;99908.56;1762382;80;21035;-61
2022/03/26 04:04:45;;;;;;;16.23;10.85;;;;;;;6.35;78.18;99905.98;1757500;80;21055;-61
2022/03/26 04:07:11;;;;;;;15.55;10.78;;;;;;;6.35;78.15;99898.20;1743754;80;21229;-60
2022/03/26 04:09:38;;;;;;;47.53;13.58;;;;;;;6.36;78.06;99904.23;1761897;80;20953;-60
2022/03/26 04:12:07;;;;;;;17.50;10.40;;;;;;;6.39;78.16;99897.23;1751171;80;20941;-60
2022/03/26 04:14:35;;;;;;;17.52;10.43;;;;;;;6.39;78.64;99902.42;1747921;80;21697;-60
2022/03/26 04:17:03;;;;;;;16.25;10.68;;;;;;;6.39;79.10;99898.53;1753493;80;21577;-61
2022/03/26 04:19:29;;;;;;;22.10;11.18;;;;;;;6.37;78.32;99896.42;1739711;80;21066;-61
2022/03/26 04:21:56;;;;;;;34.53;11.20;;;;;;;6.38;78.74;99902.00;1772810;80;22027;-60
2022/03/26 04:24:23;;;;;;;15.90;10.33;;;;;;;6.35;78.81;99898.20;1768080;80;21016;-60
2022/03/26 04:26:50;;;;;;;21.00;10.63;;;;;;;6.35;79.38;99899.95;1756750;80;20979;-60
2022/03/26 04:29:17;;;;;;;18.00;10.53;;;;;;;6.32;79.08;99890.95;1756333;80;21588;-60
2022/03/26 04:31:45;;;;;;;17.15;10.72;;;;;;;6.29;79.18;99908.74;1743299;81;21328;-60
2022/03/26 04:34:12;;;;;;;16.82;10.98;;;;;;;6.26;78.93;99904.48;1751371;81;20897;-61
2022/03/26 04:36:39;;;;;;;14.43;10.45;;;;;;;6.23;79.37;99906.31;1721194;81;21570;-60
2022/03/26 04:39:06;;;;;;;14.47;9.87;;;;;;;6.20;79.43;99899.92;1742323;81;20990;-61
2022/03/26 04:41:32;;;;;;;14.03;10.60;;;;;;;6.17;79.39;99910.37;1752584;81;21041;-60
2022/03/26 04:43:59;;;;;;;18.32;11.57;;;;;;;6.14;79.44;99916.94;1753015;81;21329;-60
2022/03/26 04:46:26;;;;;;;17.07;8.93;;;;;;;6.11;79.70;99919.61;1720948;81;21017;-60
2022/03/26 04:48:52;;;;;;;15.47;10.40;;;;;;;6.10;80.43;99932.15;1748625;80;21023;-60
2022/03/26 04:51:19;;;;;;;13.38;10.63;;;;;;;6.08;79.97;99931.33;1766540;79;21023;-61
2022/03/26 04:53:46;;;;;;;15.98;11.68;;;;;;;6.09;79.86;99926.57;1750605;79;21090;-60
2022/03/26 04:56:12;;;;;;;14.95;10.38;;;;;;;6.10;80.57;99936.03;1747491;81;21385;-60
2022/03/26 04:58:39;;;;;;;14.85;10.35;;;;;;;6.05;80.22;99943.50;1756876;80;21000;-60
2022/03/26 05:01:07;;;;;;;16.67;11.40;;;;;;;6.04;80.38;99948.26;1760701;80;21546;-60
2022/03/26 05:03:33;;;;;;;16.15;11.12;;;;;;;6.03;80.22;99933.61;1756219;80;21250;-60
2022/03/26 05:06:00;;;;;;;17.77;10.65;;;;;;;6.02;80.25;99936.22;1758853;80;21003;-60
2022/03/26 05:08:27;;;;;;;13.77;11.13;;;;;;;5.99;80.28;99934.59;1752894;80;21091;-60
2022/03/26 05:10:54;;;;;;;17.83;11.53;;;;;;;5.97;80.27;99944.13;1752341;80;21378;-60
2022/03/26 05:13:21;;;;;;;17.02;11.08;;;;;;;5.97;80.56;99959.69;1748430;80;21572;-61
2022/03/26 05:15:47;;;;;;;14.63;11.10;;;;;;;5.95;81.29;99958.86;1757150;80;20964;-60
2022/03/26 05:18:14;;;;;;;17.63;11.90;;;;;;;5.92;81.38;99966.69;1743736;81;20961;-60
2022/03/26 05:20:41;;;;;;;17.43;11.17;;;;;;;5.89;80.75;99966.77;1753617;81;21094;-60
2022/03/26 05:23:08;;;;;;;16.77;11.40;;;;;;;5.91;80.81;99985.73;1745207;80;21060;-60
2022/03/26 05:25:36;;;;;;;21.97;11.70;;;;;;;5.90;81.08;99965.86;1753405;81;20965;-61
2022/03/26 05:28:03;;;;;;;14.13;10.75;;;;;;;5.90;81.06;99968.45;1775187;80;20990;-60
2022/03/26 05:30:31;;;;;;;19.75;9.08;;;;;;;5.88;81.35;99979.33;1739909;80;21013;-61
2022/03/26 05:33:00;;;;;;;17.15;11.48;;;;;;;5.87;82.69;99978.89;1720631;81;21680;-60
2022/03/26 05:35:27;;;;;;;15.80;11.00;;;;;;;5.85;81.61;99981.95;1745273;81;21012;-60
2022/03/26 05:37:54;;;;;;;17.62;10.78;;;;;;;5.86;81.92;99977.66;1755863;80;20968;-60
2022/03/26 05:40:21;;;;;;;17.27;10.95;;;;;;;5.83;82.10;99988.94;1748495;80;21018;-60
2022/03/26 05:42:49;;;;;;;19.62;10.65;;;;;;;5.84;82.00;99988.05;1745744;80;20985;-61
2022/03/26 05:45:17;;;;;;;17.07;11.03;;;;;;;5.86;81.84;99988.86;1754013;79;21122;-60
2022/03/26 05:47:43;;;;;;;16.40;10.38;;;;;;;5.90;81.48;99982.70;1727637;82;28182;-60
2022/03/26 05:50:13;;;;;;;17.90;10.72;;;;;;;5.92;82.61;99987.42;1737173;80;21001;-60
2022/03/26 05:52:40;;;;;;;18.67;11.05;;;;;;;5.93;81.59;99994.33;1712511;81;21018;-60
2022/03/26 05:55:08;;;;;;;;;;;;;;;5.96;81.63;99999.43;1722415;81;20945;-60
2022/03/26 05:57:35;;;;;;;20.60;10.93;;;;;;;5.99;82.15;100001.98;1729350;81;20995;-60
2022/03/26 06:00:05;;;;;;;11.18;8.95;;;;;;;5.98;81.85;99995.08;1707688;82;21013;-60
2022/03/26 06:02:32;;;;;;;18.30;11.20;;;;;;;5.98;82.38;99989.89;1700039;83;21076;-60
2022/03/26 06:04:59;;;;;;;18.63;9.80;;;;;;;5.99;82.17;100001.98;1701640;82;21056;-61
2022/03/26 06:07:26;;;;;;;15.48;10.43;;;;;;;5.99;81.96;99999.39;1690639;82;21817;-60
2022/03/26 06:09:52;;;;;;;19.57;10.70;;;;;;;6.00;82.05;100006.27;1704154;82;21039;-60
2022/03/26 06:12:21;;;;;;;18.35;10.88;;;;;;;6.01;82.23;100005.36;1692250;83;21061;-61
2022/03/26 06:14:48;;;;;;;17.20;9.25;;;;;;;6.02;81.95;100010.09;1699478;84;21006;-61
2022/03/26 06:17:15;;;;;;;23.52;10.25;;;;;;;5.98;82.50;100018.40;1717024;81;28190;-61
2022/03/26 06:19:43;;;;;;;12.63;8.43;;;;;;;5.98;82.33;100033.95;1696485;83;21017;-60
2022/03/26 06:22:11;;;;;;;13.20;7.67;;;;;;;5.97;82.36;100020.59;1728789;81;21061;-59
2022/03/26 06:24:39;;;;;;;;;;;;;;;5.99;83.39;100038.27;1705828;82;21064;-58
2022/03/26 06:27:06;;;;;;;19.45;10.25;;;;;;;5.96;82.59;100033.13;1704591;82;20085;-58
2022/03/26 06:29:36;;;;;;;17.27;9.78;;;;;;;5.97;82.45;100041.78;1725288;82;20997;-58
2022/03/26 06:32:04;;;;;;;20.05;9.73;;;;;;;5.96;82.45;100046.09;1722131;82;21021;-58
2022/03/26 06:34:31;;;;;;;19.80;10.20;;;;;;;5.95;82.88;100046.98;1703428;82;21131;-58
2022/03/26 06:36:58;;;;;;;15.05;9.05;;;;;;;5.98;82.57;100049.50;1700144;83;20922;-60
2022/03/26 06:39:24;;;;;;;13.28;8.68;;;;;;;6.01;83.29;100061.55;1701029;82;20950;-59
2022/03/26 06:41:51;;;;;;;16.15;8.95;;;;;;;6.02;82.99;100047.27;1713785;82;21534;-59
2022/03/26 06:44:18;;;;;;;14.50;9.60;;;;;;;6.04;82.86;100064.91;1726219;81;21017;-61
2022/03/26 06:46:44;;;;;;;15.50;9.18;;;;;;;6.06;82.78;100059.70;1732259;81;21024;-60
2022/03/26 06:49:11;;;;;;;15.30;9.20;;;;;;;6.10;83.16;100050.10;1697743;83;21180;-60
2022/03/26 06:51:38;;;;;;;18.37;9.30;;;;;;;6.11;82.87;100057.02;1697015;83;20954;-60
2022/03/26 06:54:05;;;;;;;17.15;9.68;;;;;;;6.13;82.71;100062.99;1704506;83;21614;-61
2022/03/26 06:56:33;;;;;;;14.68;8.73;;;;;;;6.15;82.78;100062.07;1724802;82;20989;-60
2022/03/26 06:59:00;;;;;;;15.48;9.15;;;;;;;6.16;82.99;100068.98;1767457;80;21605;-60
2022/03/26 07:01:27;;;;;;;13.53;8.20;;;;;;;6.14;82.78;100068.61;1755917;80;20929;-60
2022/03/26 07:03:54;;;;;;;16.57;8.68;;;;;;;6.17;83.02;100075.02;1756190;80;21011;-60
2022/03/26 07:06:23;;;;;;;17.60;8.45;;;;;;;6.16;83.42;100065.51;1755357;80;20933;-60
2022/03/26 07:08:50;;;;;;;18.67;8.85;;;;;;;6.18;83.36;100067.63;1749755;80;21776;-60
2022/03/26 07:11:16;;;;;;;;;;;;;;;6.19;83.49;100077.98;1745215;80;21062;-60
2022/03/26 07:13:44;;;;;;;17.80;9.18;;;;;;;6.22;83.45;100074.02;1739384;80;20490;-60
2022/03/26 07:16:11;;;;;;;15.13;8.95;;;;;;;6.27;83.10;100076.48;1741961;80;20984;-60
2022/03/26 07:18:38;;;;;;;14.03;8.80;;;;;;;6.31;83.09;100085.91;1748774;80;20953;-61
2022/03/26 07:21:05;;;;;;;17.48;8.65;;;;;;;6.32;83.10;100085.00;1738990;80;21080;-60
2022/03/26 07:23:32;;;;;;;21.42;8.80;;;;;;;6.28;83.26;100085.98;1741006;80;21467;-59
2022/03/26 07:26:05;;;;;;;14.40;8.38;;;;;;;6.28;83.22;100093.77;1743974;80;21652;-59
2022/03/26 07:28:32;;;;;;;13.25;8.45;;;;;;;6.30;83.23;100087.22;1743978;80;21505;-60
2022/03/26 07:30:59;;;;;;;15.28;8.38;;;;;;;6.35;83.17;100094.45;1750544;80;20933;-60
2022/03/26 07:33:27;;;;;;;15.30;8.03;;;;;;;6.36;83.32;100091.84;1759290;80;21509;-59
2022/03/26 07:35:57;;;;;;;12.20;8.30;;;;;;;6.40;83.51;100088.27;1752178;80;21085;-60
2022/03/26 07:38:27;;;;;;;15.65;7.92;;;;;;;6.50;83.33;100080.68;1733702;81;21686;-60
2022/03/26 07:40:54;;;;;;;17.75;8.28;;;;;;;6.64;83.30;100091.16;1777565;80;20971;-59
2022/03/26 07:43:21;;;;;;;13.60;8.23;;;;;;;6.74;83.14;100091.31;1754748;81;21016;-59
2022/03/26 07:45:49;;;;;;;17.70;7.83;;;;;;;6.91;83.18;100089.58;1778996;79;20968;-59
2022/03/26 07:48:15;;;;;;;12.60;7.50;;;;;;;7.13;83.20;100087.27;1725050;82;21102;-59
2022/03/26 07:50:43;;;;;;;15.88;8.38;;;;;;;7.29;82.80;100096.34;1764868;79;21068;-60
2022/03/26 07:53:10;;;;;;;11.70;6.83;;;;;;;7.29;82.44;100090.30;1747646;80;21004;-60
2022/03/26 07:55:37;;;;;;;16.25;7.30;;;;;;;7.37;82.44;100096.98;1757457;79;20992;-60
2022/03/26 07:58:05;;;;;;;11.70;7.78;;;;;;;7.42;82.32;100101.19;1708555;81;21466;-59
2022/03/26 08:00:34;;;;;;;11.68;5.97;;;;;;;7.51;82.29;100106.14;1741968;80;21112;-60
2022/03/26 08:03:20;;;;;;;12.58;6.47;;;;;;;7.62;82.26;100115.78;1709682;82;20933;-60
2022/03/26 08:05:48;;;;;;;;;;;;;;;7.71;81.80;100111.61;1758436;79;20964;-59
2022/03/26 08:08:15;;;;;;;14.78;6.87;;;;;;;7.66;81.89;100111.34;1741270;80;20181;-59
2022/03/26 08:10:42;;;;;;;12.07;6.67;;;;;;;7.65;81.94;100116.98;1737571;80;20907;-60
2022/03/26 08:13:10;;;;;;;15.75;7.35;;;;;;;7.73;81.98;100124.12;1742071;81;21935;-59
2022/03/26 08:15:37;;;;;;;11.78;5.83;;;;;;;7.90;82.12;100122.73;1774233;79;20975;-60
2022/03/26 08:18:04;;;;;;;8.33;5.00;;;;;;;8.02;81.71;100124.99;1769363;79;21059;-59
2022/03/26 08:20:31;;;;;;;11.50;4.90;;;;;;;8.08;81.44;100127.40;1783496;79;20890;-60
2022/03/26 08:22:59;;;;;;;12.25;6.15;;;;;;;8.15;81.08;100138.03;1773809;79;21850;-60
2022/03/26 08:28:13;;;;;;;14.00;5.85;;;;;;;8.15;81.24;100131.53;1785335;79;21235;-62
2022/03/26 08:30:41;;;;;;;7.62;4.72;;;;;;;8.29;81.16;100131.11;1783804;79;21029;-60
2022/03/26 08:33:08;;;;;;;;;;;;;;;8.40;80.86;100142.48;1792192;78;20903;-62
2022/03/26 08:35:38;;;;;;;7.65;4.20;;;;;;;8.34;79.42;100142.65;1784739;78;20440;-59
2022/03/26 08:38:08;;;;;;;9.13;5.15;;;;;;;8.14;79.75;100149.31;1784334;78;21030;-59
2022/03/26 08:40:36;;;;;;;9.63;5.00;;;;;;;8.15;80.24;100140.64;1785651;78;21306;-60
2022/03/26 08:43:08;;;;;;;11.28;5.50;;;;;;;8.22;80.12;100153.84;1774962;79;20954;-60
2022/03/26 08:45:36;;;;;;;7.20;4.17;;;;;;;8.24;80.00;100148.15;1772042;78;21006;-60
2022/03/26 08:48:03;;;;;;;8.18;4.40;;;;;;;8.33;80.01;100151.36;1780267;78;20973;-61
2022/03/26 08:50:36;;;;;;;6.45;3.75;;;;;;;8.38;79.62;100152.08;1766607;79;21117;-60
2022/03/26 08:53:05;;;;;;;9.25;4.05;;;;;;;8.54;79.84;100150.70;1767402;79;21034;-60
2022/03/26 08:56:16;;;;;;;7.42;3.75;;;;;;;8.69;79.13;100150.22;1854092;75;23382;-59
2022/03/26 08:58:55;;;;;;;8.60;3.62;;;;;;;8.72;79.30;100157.08;1818559;78;21239;-59
2022/03/26 09:01:23;;;;;;;7.47;3.27;;;;;;;8.65;78.35;100156.41;1816480;77;21745;-60
2022/03/26 09:03:55;;;;;;;7.05;3.05;;;;;;;8.64;77.22;100157.32;1803095;77;20989;-60
2022/03/26 09:06:22;;;;;;;7.37;3.08;;;;;;;8.82;77.94;100171.94;1801656;77;21021;-60
2022/03/26 09:08:54;;;;;;;4.90;2.10;;;;;;;8.90;77.34;100168.63;1798579;77;21028;-60
2022/03/26 09:11:23;;;;;;;8.00;2.77;;;;;;;8.70;75.34;100171.89;1806245;77;21547;-60
2022/03/26 09:13:55;;;;;;;5.53;2.83;;;;;;;8.73;76.54;100172.63;1805534;77;21167;-60
2022/03/26 09:16:30;;;;;;;6.95;2.62;;;;;;;8.91;76.64;100179.47;1800051;77;20969;-60
2022/03/26 09:18:58;;;;;;;5.12;2.70;;;;;;;8.76;74.56;100178.65;1822758;77;20937;-60
2022/03/26 09:21:26;;;;;;;;;;;;;;;8.59;74.74;100193.05;1812074;77;20945;-60
2022/03/26 09:23:55;;;;;;;11.68;2.47;;;;;;;8.45;73.61;100190.03;1803676;78;20072;-60
2022/03/26 09:26:24;;;;;;;5.55;2.83;;;;;;;8.45;74.83;100200.45;1798836;77;21187;-64
2022/03/26 09:28:51;;;;;;;;;;;;;;;8.63;75.10;100203.78;1799919;78;21409;-60
2022/03/26 09:31:18;;;;;;;;;;;;;;;8.83;74.40;100200.55;1812376;78;20141;-60
2022/03/26 09:33:45;;;;;;;6.62;1.90;;;;;;;8.70;74.25;100198.77;1814577;78;20425;-60
2022/03/26 09:36:12;;;;;;;3.47;1.52;;;;;;;8.60;71.17;100215.60;1807254;78;20909;-59
2022/03/26 09:38:39;;;;;;;5.22;1.90;;;;;;;8.55;73.00;100216.19;1800884;78;21124;-60
2022/03/26 09:41:07;;;;;;;4.28;1.70;;;;;;;8.48;69.00;100215.96;1806881;78;20847;-60
2022/03/26 09:43:37;;;;;;;2.95;1.47;;;;;;;8.20;69.79;100219.36;1790088;78;20902;-60
2022/03/26 09:46:06;;;;;;;5.78;1.52;;;;;;;8.10;68.37;100230.95;1803894;78;20904;-59
2022/03/26 09:48:37;;;;;;;3.67;1.40;;;;;;;8.14;70.13;100227.34;1806317;78;20942;-60
2022/03/26 09:51:04;;;;;;;2.65;1.10;;;;;;;8.21;68.51;100228.89;1820777;77;21024;-63
2022/03/26 09:53:31;;;;;;;5.10;0.98;;;;;;;8.39;65.63;100227.96;1811163;78;20997;-60
2022/03/26 09:55:58;;;;;;;1.45;0.60;;;;;;;8.53;64.57;100224.94;1792960;77;20945;-60
2022/03/26 09:58:25;;;;;;;2.55;0.95;;;;;;;8.62;64.74;100241.11;1798636;79;21467;-60
2022/03/26 10:00:53;;;;;;;1.98;0.72;;;;;;;8.74;67.17;100231.64;1796933;77;21526;-60
2022/03/26 10:03:19;;;;;;;;;;;;;;;8.74;61.20;100223.83;1795724;77;21031;-60
2022/03/26 10:05:46;;;;;;;7.87;2.00;;;;;;;8.66;61.51;100231.02;1806920;77;20133;-60
2022/03/26 10:08:25;;;;;;;4.45;1.00;;;;;;;8.73;64.77;100231.67;1802116;77;21075;-60
2022/03/26 10:10:52;;;;;;;4.10;0.80;;;;;;;8.77;60.47;100248.07;1808049;79;20854;-60
2022/03/26 10:13:41;;;;;;;5.92;1.32;;;;;;;8.89;62.59;100232.05;1811145;79;21482;-64
2022/03/26 10:16:11;;;;;;;5.03;1.30;;;;;;;9.16;65.09;100231.14;1810716;78;21091;-60
2022/03/26 10:18:42;;;;;;;2.67;1.40;;;;;;;9.13;61.64;100240.37;1806988;77;20885;-60
2022/03/26 10:21:13;;;;;;;5.08;0.75;;;;;;;9.11;59.43;100248.67;1806306;78;20933;-60
2022/03/26 10:23:44;;;;;;;4.92;0.93;;;;;;;8.98;60.81;100244.76;1809117;77;20963;-60
2022/03/26 10:26:16;;;;;;;3.67;1.35;;;;;;;8.96;58.91;100309.06;1799546;77;20944;-60
2022/03/26 10:28:55;;;;;;;4.83;0.90;;;;;;;8.83;55.99;100294.74;1796631;77;21383;-60
2022/03/26 10:34:20;;;;;;;2.35;0.80;;;;;;;8.79;56.01;100280.09;1803942;79;20921;-60
2022/03/26 10:36:57;;;;;;;2.95;0.98;;;;;;;8.74;52.05;100288.91;1800266;77;20917;-59
2022/03/26 10:39:29;;;;;;;1.62;0.70;;;;;;;8.68;52.24;100279.12;1788865;77;20956;-60
2022/03/26 10:41:57;;;;;;;2.47;0.72;;;;;;;8.71;53.20;100278.59;1796822;77;21086;-60
2022/03/26 10:44:30;;;;;;;3.83;1.00;;;;;;;8.78;53.43;100307.05;1802035;76;20854;-60
2022/03/26 10:47:00;;;;;;;4.45;0.88;;;;;;;8.73;52.77;100296.30;1787524;77;20858;-59
2022/03/26 10:49:38;;;;;;;4.15;1.05;;;;;;;8.77;54.41;100287.13;1786968;77;21407;-59
2022/03/26 10:52:08;;;;;;;;;;;;;;;8.82;55.20;100290.41;1789487;77;20901;-60
2022/03/26 10:54:36;;;;;;;2.12;0.80;;;;;;;8.64;48.73;100316.11;1787890;77;21107;-60
2022/03/26 10:57:05;;;;;;;2.33;1.00;;;;;;;8.55;51.75;100298.17;1808291;77;20871;-59
2022/03/26 10:59:33;;;;;;;2.80;0.70;;;;;;;8.63;51.35;100309.22;1805367;77;20926;-60
2022/03/26 11:02:01;;;;;;;;;;;;;;;8.73;48.54;100308.02;1812491;77;20945;-60
2022/03/26 11:04:29;;;;;;;3.00;0.85;;;;;;;8.78;51.88;100301.38;1805527;77;20081;-59
2022/03/26 11:06:57;;;;;;;2.83;0.80;;;;;;;8.72;49.46;100295.91;1815377;77;21906;-60
2022/03/26 11:09:26;;;;;;;6.70;0.80;;;;;;;8.48;47.95;100305.75;1810245;76;20904;-59
2022/03/26 11:11:56;;;;;;;3.02;0.70;;;;;;;8.49;49.58;100303.56;1828203;77;20930;-60
2022/03/26 11:14:33;;;;;;;2.45;1.07;;;;;;;8.46;48.11;100312.77;1826478;77;20887;-59
2022/03/26 11:17:20;;;;;;;1.40;0.93;;;;;;;8.61;45.30;100335.73;1822786;77;21384;-59
2022/03/26 11:20:24;;;;;;;2.35;0.80;;;;;;;8.49;46.92;100319.19;1824426;77;21135;-60
2022/03/26 11:23:11;;;;;;;1.25;0.50;;;;;;;8.39;45.96;100309.92;1830526;77;20910;-59
2022/03/26 11:26:15;;;;;;;2.40;1.02;;;;;;;8.48;44.92;100314.86;1817857;78;20883;-59
2022/03/26 11:29:04;;;;;;;2.12;0.95;;;;;;;8.63;48.78;100310.97;1820306;76;21502;-60
2022/03/26 11:31:48;;;;;;;1.98;0.80;;;;;;;8.81;49.21;100319.52;1829375;77;20965;-60
2022/03/26 11:34:21;;;;;;;2.95;1.00;;;;;;;8.76;45.49;100319.25;1824332;78;21009;-59
2022/03/26 11:36:52;;;;;;;1.72;0.68;;;;;;;8.73;44.17;100339.27;1822429;77;20974;-61
2022/03/26 11:39:22;;;;;;;8.63;1.02;;;;;;;8.60;46.10;100337.95;1825107;77;21626;-59
2022/03/26 11:41:48;;;;;;;2.70;0.82;;;;;;;8.55;48.10;100311.19;1827446;77;21932;-58
2022/03/26 11:44:22;;;;;;;3.45;1.02;;;;;;;8.50;47.68;100335.19;1826070;76;20869;-58